Volborg, Montana
Current Conditions -  °F | °C
As of 6:53 PM on Saturday 22 Nov 2014 (Local Time) from KMLS Reporting Station
Overcast Overcast  
Wind Chill: 39°   Ceiling: 7500
Heat Index: 46°   Visibility: 10mi
Dew Point: 29°   Wind: 17mph
Humidity: 51%   Direction: 290°WNW
Pressure: 29.41"   Gusts: NA
Location:  45.84°N, 105.68°W
Report Text: KMLS 230153Z AUTO 29015KT 10SM OVC075 08/M02 A2941 RMK AO2 PK WND 27028/0102 SLP970 T00781017
Loading
Personal Weather Stations






























Interactive Weather Map New forecast layout! Learn more

10-Day Weather Forecast

Advertisements
Track Severe Weather on mobile